Terminal Aerodrome Forecast
Issued by NWS

Home | Current Version | Previous Version | Text Only | Print | Product List | Glossary Off
Versions: 1 2 3 4 5 6 7 8 9 10 11 12 13 14 15

893
FTUS43 KMPX 210520
TAFRWF
TAF
KRWF 210520Z 2106/2206 34008KT 1SM -DZ BR OVC003
     FM211100 30010KT 4SM BR VCSH OVC008
     FM211700 30014G21KT P6SM OVC015
     FM220000 28009KT P6SM SCT025 BKN040=

USA.gov is the U.S. government's official web portal to all federal, state and local government web resources and services.